Tiempo atmosférico en la estación meteorológica de Pontevedra, Pontevedra (108 m.)



Fecha
DESCASC
Temp. máxima en grados centígrados (hora)
DESCASC
Temp. mínima en grados centígrados (hora)
DESCASC
Temp. media en grados centígrados
DESCASC
Racha de viento máxima en m/sg (hora)
DESCASC
Velocidad máxima media en intervalos de 10 minutos(hora)
DESCASC
Precipitaciones diarias en mm
DESCASC
Precipitaciones de 00:00 a 06:00 en mm
DESCASC
Precipitaciones de 06:00 a 12:00 en mm
DESCASC
Precipitaciones de 12:00 a 18:00 en mm
DESCASC
Precipitaciones de 18:00 a 24:00 en mm
DESCASC
25-04-2019 13.1 (14:10) 7.2 (03:00) 10.2 19.17 (04:20) 10 (14:40) 26.8 6.2 4.4 7.2 9
24-04-2019 14 (14:10) 6.9 (01:00) 10.5 17.5 (17:50) 9.44 (17:50) 19 10.4 2.4 5.2 1
23-04-2019 13.8 (17:00) 6.3 (11:10) 10.1 12.22 (15:30) 6.67 (15:30) 20.6 5.4 7.2 1.4 6.6
22-04-2019 16.4 (12:10) 9.4 (00:00) 12.9 15.28 (21:10) 6.39 (21:10) 7.6 0 0 0 7.6
21-04-2019 24.9 (16:00) 13.3 (00:00) 19.1 11.67 (18:50) 5.83 (18:50) 0.6 0 0 0 0.6
20-04-2019 27 (17:00) 10.8 (00:00) 18.9 12.22 (20:40) 5 (20:50) 0 0 0 0 0
19-04-2019 24.2 (17:50) 11.1 (00:00) 17.7 10.28 (11:20) 4.17 (17:00) 0 0 0 0 0
18-04-2019 18.9 (14:00) 10.7 (00:00) 14.8 6.94 (14:50) 3.89 (15:00) 5.6 3 0 2.6 0
17-04-2019 16.2 (13:50) 10.3 (00:00) 13.3 9.72 (14:40) 4.17 (14:30) 7.2 0 0 4.6 2.6
16-04-2019 18.4 (17:20) 8.4 (00:00) 13.4 8.61 (14:50) 4.72 (14:50) 0 0 0 0 0
15-04-2019 16.2 (02:10) 10.9 (00:00) 13.6 12.5 (14:20) 7.5 (14:20) 4.4 0 4.2 0.2 0
14-04-2019 19.1 (13:00) 13.8 (00:00) 16.5 6.67 (12:10) 3.33 (12:20) 5.8 0 0 2.4 3.4
13-04-2019 16.7 (13:50) 9.5 (00:00) 13.1 6.67 (14:40) 3.61 (14:30) 0.4 0 0 0.4 0
12-04-2019 18.2 (17:40) 5.9 (00:00) 12.1 6.39 (08:10) 4.17 (08:10) 0 0 0 0 0
11-04-2019 18.1 (17:20) 5.2 (00:00) 11.7 8.33 (16:40) 5 (18:10) 0 0 0 0 0
10-04-2019 17.2 (19:00) 8.1 (00:00) 12.7 8.33 (18:00) 4.72 (18:00) 4.2 3.4 0.2 0.6 0
09-04-2019 13.4 (14:20) 8 (00:00) 10.7 14.44 (15:10) 7.5 (16:20) 25 12.4 5.4 2.2 5
08-04-2019 15.7 (16:20) 8.2 (00:00) 11.9 15.83 (15:20) 7.5 (16:00) 4.4 0.2 2 0 2.2
07-04-2019 12.6 (22:50) 4.2 (00:00) 8.4 13.06 (22:50) 6.11 (22:50) 22.2 0.4 0.2 7 14.6
06-04-2019 13.1 (16:00) 6.2 (00:00) 9.7 15 (07:30) 6.67 (13:50) 22 7.6 10.2 1.6 2.6
05-04-2019 11.6 (17:10) 4.5 (00:00) 8.1 10 (17:50) 5 (17:50) 18.4 3.4 8 5 2
04-04-2019 9.6 (12:00) 3.5 (00:00) 6.6 11.94 (18:50) 5.28 (14:30) 16.2 0 0 5.4 10.8
03-04-2019 13.2 (17:40) 6 (07:20) 9.6 13.61 (15:20) 7.5 (15:20) 1.8 0 0 1.8 0
02-04-2019 18.7 (16:30) 7 (00:00) 12.9 9.44 (19:30) 5.56 (18:00) 0 0 0 0 0
01-04-2019 20.9 (13:30) 9.4 (00:00) 15.1 9.72 (17:40) 5 (18:20) 0 0 0 0 0
31-03-2019 21.5 (16:50) 9.2 (00:00) 15.3 10.56 (16:20) 3.89 (17:30) 0 0 0 0 0
30-03-2019 20.7 (13:30) 7.3 (00:00) 14 6.67 (15:50) 4.44 (01:10) 0 0 0 0 0
29-03-2019 21.8 (12:30) 9.6 (00:00) 15.7 10.28 (15:10) 5.56 (15:50) 0 0 0 0 0
28-03-2019 24.7 (15:50) 8.2 (00:00) 16.5 7.22 (17:20) 4.17 (16:40) 0 0 0 0 0
27-03-2019 25.6 (16:40) 10.3 (00:00) 18 7.22 (16:50) 4.17 (16:50) 0 0 0 0 0

Gráficas

Temp. máximas Temp. mínimas Temp. medias Precipitaciones Rachas de viento máximas Velocidades máximas media en intervalos de 10 minutos

Datos horarios

Fecha y hora oficial Temperatura (ºC) Velocidad del viento (km/h) Dirección del viento Racha (km/h) Dirección de racha Precipitación (mm) Presión (hPa) Tendencia (hPa) Humedad (%)
2019-04-25 23:00:00 10.3 9 Sudoeste 23 Oeste 1.4 1003.6 4.4 91
2019-04-25 22:00:00 10.2 13 Oeste 36 Sudoeste 1.8 1001.9 3.8 91
2019-04-25 21:00:00 10.6 12 Sudoeste 35 Oeste 2.6 1000.5 3.7 92
2019-04-25 20:00:00 11.8 15 Sudoeste 48 Sudoeste 0.2 999.2 2.7 89
2019-04-25 19:00:00 10.9 22 Sudoeste 57 Sudoeste 2.6 998.1 2.6 89
2019-04-25 18:00:00 11.9 27 Sudoeste 51 Sudoeste 0.2 996.8 2.1 83
2019-04-25 17:00:00 11.9 17 Sudoeste 43 Sudoeste 0 996.5 3.1 82
2019-04-25 16:00:00 9.9 20 Sudoeste 48 Sudoeste 1.2 995.5 2.3 91
2019-04-25 15:00:00 7.8 21 Sudoeste 67 Sudoeste 4.8 994.7 1.6 95
2019-04-25 14:00:00 12.8 25 Sudoeste 63 Sudoeste 0 993.4 1.4 74
2019-04-25 13:00:00 10.5 23 Sur 56 Sudoeste 1 993.2 1.7 89
2019-04-25 12:00:00 9.4 17 Sur 61 Sudoeste 0.2 993.1 1.9 82
2019-04-25 11:00:00 10.8 16 Sur 37 Sur 1.2 992 2 82
2019-04-25 10:00:00 9.7 9 Sur 36 Sudoeste 1.4 991.5 2 87
2019-04-25 09:00:00 9.2 9 Sudoeste 34 Sudoeste 0.4 991.2 2.3 82
2019-04-25 08:00:00 9.5 23 Sudoeste 43 Sudoeste 0.2 990 1.7 80
2019-04-25 07:00:00 8.1 15 Sudoeste 51 Sudoeste 1 989.5 1.4 86
2019-04-25 06:00:00 8.2 15 Sur 44 Sudoeste 0 988.9 0.8 85
2019-04-25 05:00:00 9.8 23 Sudoeste 69 Sudoeste 0.2 988.3 0.5 75
2019-04-25 04:00:00 9.2 21 Sudoeste 46 Sudoeste 0 988.1 0.7 79
2019-04-25 03:00:00 7.3 27 Sudoeste 65 Sudoeste 6 988.1 0.9 90
2019-04-25 02:00:00 9.6 11 Sur 41 Sudoeste 0 987.8 0.8 75
2019-04-25 01:00:00 9.7 12 Sur 31 Sur 0 987.4 1.3 78
2019-04-25 00:00:00 9.3 14 Sur 26 Sur 0 987.2 1.5 84
2019-04-24 23:00:00 9 13 Sur 31 Sudoeste 1 987 1.8 87
2019-04-24 22:00:00 9.9 11 Sudoeste 23 Sur 0 986.1 1.7 83
2019-04-24 21:00:00 10.2 10 Sudoeste 43 Sudoeste 0 985.7 1.9 76
2019-04-24 20:00:00 11.4 21 Sudoeste 46 Sudoeste 0 985.2 2.4 76
2019-04-24 19:00:00 11.6 23 Sudoeste 51 Sudoeste 0 984.4 1.5 78
2019-04-24 18:00:00 10 26 Sudoeste 63 Sudoeste 3.2 983.8 1.4 92
2019-04-24 17:00:00 11.8 16 Sur 39 Sur 0 982.8 0.4 85
2019-04-24 16:00:00 11.3 24 Sur 48 Sur 0.6 982.9 1 86
2019-04-24 15:00:00 12.6 20 Sur 57 Sudoeste 0 982.4 1.4 70
2019-04-24 14:00:00 13.8 29 Sudoeste 54 Sudoeste 0 982.4 2.3 65
2019-04-24 13:00:00 10.5 19 Sur 60 Sudoeste 1.4 981.9 2.8 88
2019-04-24 12:00:00 11.1 24 Sudoeste 55 Sudoeste 1 981 2 90
2019-04-24 11:00:00 12.1 18 Sudoeste 53 Sudoeste 0.4 980.1 1 90
2019-04-24 10:00:00 10.8 17 Sur 44 Sur 0.2 979.1 -0.9 96
2019-04-24 09:00:00 8 5 Sudeste 17 Sudeste 0 979 -2.2 93
2019-04-24 08:00:00 7.2 6 Nordeste 19 Este 0 979.1 -3.1 90
2019-04-24 07:00:00 7 5 Nordeste 25 Sudeste 0.8 980 -3.1 91
2019-04-24 06:00:00 7.1 11 Sudeste 21 Este 1.2 981.2 -3.2 91
2019-04-24 05:00:00 7.2 6 Sudeste 17 Sudeste 0.2 982.2 -2.6 90
2019-04-24 04:00:00 7.1 7 Sudeste 22 Sur 1.8 983.1 -2.4 93
2019-04-24 03:00:00 7.3 10 Sur 21 Sur 3 984.4 -1.3 95
2019-04-24 02:00:00 7.3 9 Sur 20 Sudeste 2.2 984.8 -1 94
2019-04-24 01:00:00 6.9 9 Sudeste 31 Sur 2 985.5 0 92
2019-04-24 00:00:00 7.5 5 Noroeste 14 Sudeste 0.4 985.7 0.6 95
2019-04-23 23:00:00 7.7 8 Este 18 Sudoeste 2 985.8 1 93
2019-04-23 22:00:00 7.7 8 Sudeste 32 Sudoeste 4 985.5 0.8 91
2019-04-23 21:00:00 9.8 15 Sudoeste 31 Sudoeste 0.2 985.1 0.6 80
2019-04-23 20:00:00 11.7 14 Sudoeste 40 Sudoeste 0 984.8 0.4 65
2019-04-23 19:00:00 12.7 19 Sudoeste 40 Sudoeste 0 984.7 0.3 64
2019-04-23 18:00:00 12.2 19 Sudoeste 41 Sudoeste 0 984.5 0.7 57
2019-04-23 17:00:00 13.4 16 Sudoeste 37 Sudoeste 0 984.4 0.3 59
2019-04-23 16:00:00 12.5 19 Sudoeste 44 Sudoeste 0 984.4 0.5 62
2019-04-23 15:00:00 12.5 16 Sudoeste 29 Sudoeste 0 983.8 0 72
2019-04-23 14:00:00 10.3 4 Sur 14 Sur 1.4 984.1 1.2 87
2019-04-23 13:00:00 7.8 8 Nordeste 13 Nordeste 0 983.9 2 92
2019-04-23 12:00:00 6.8 2 Este 10 Este 0.2 983.8 2.3 92
2019-04-23 11:00:00 6.4 5 Noroeste 30 Sudoeste 3.4 982.9 2 91
2019-04-23 10:00:00 8 4 Sur 19 Sudeste 1.2 981.9 1.6 97
2019-04-23 09:00:00 7.6 8 Sur 20 Sudeste 0.2 981.5 1.2 94
2019-04-23 08:00:00 7.2 10 Sur 27 Sudeste 1.2 980.9 0.1 91
2019-04-23 07:00:00 7.7 11 Sudeste 27 Sudeste 1 980.3 -0.7 92
2019-04-23 06:00:00 7.9 11 Sudeste 26 Este 0 980.3 -1 94
2019-04-23 05:00:00 7.9 0 Calma 6 Nordeste 0.2 980.8 -0.7 95
2019-04-23 04:00:00 8.4 3 Noroeste 12 Sudoeste 1 981 -1.3 94
2019-04-23 03:00:00 8.4 5 Sur 22 Sur 1.4 981.3 -0.8 95
2019-04-23 02:00:00 8.7 5 Sur 17 Sudeste 1.4 981.5 -1.2 93
2019-04-23 01:00:00 8.9 4 Sudeste 16 Sur 1.4 982.3 -0.3 95
2019-04-23 00:00:00 9.5 6 Sudeste 13 Oeste 4 982.1 0.4 95
2019-04-22 23:00:00 10 4 Este 14 Sudoeste 1.8 982.7 0.7 92
2019-04-22 22:00:00 10.2 10 Sudoeste 55 Sudoeste 1.4 982.6 0 89
2019-04-22 21:00:00 11.5 19 Sur 46 Sudoeste 0.4 981.7 -1.8 87
2019-04-22 20:00:00 13.3 8 Sur 28 Sur 0 982 -2.1 85
2019-04-22 19:00:00 13.7 14 Sur 32 Sur 0 982.6 -2.8 79
2019-04-22 18:00:00 13.9 12 Sudoeste 31 Oeste 0 983.5 -2.8 86
2019-04-22 17:00:00 15.7 9 Sur 20 Sur 0 984.1 -3.1 76
2019-04-22 16:00:00 13.8 10 Sudoeste 32 Sudoeste 0 985.4 -2.6 82
2019-04-22 15:00:00 14 16 Sudoeste 32 Sudoeste 0 986.3 -1.9 81
2019-04-22 14:00:00 13.7 17 Sudoeste 35 Sudoeste 0 987.2 -1.5 84
2019-04-22 13:00:00 14.4 15 Sudoeste 36 Sudoeste 0 988 -1.2 82
2019-04-22 12:00:00 16.2 9 Sudoeste 20 Sudoeste 0 988.2 -1.2 76
2019-04-22 11:00:00 15.9 9 Sudoeste 18 Sudoeste 0 988.7 -0.9 66
2019-04-22 10:00:00 13.3 4 Sur 9 Nordeste 0 989.2 -0.8 69
2019-04-22 09:00:00 10.2 5 Norte 15 Nordeste 0 989.4 -1.2 77
2019-04-22 08:00:00 9.6 6 Nordeste 18 Nordeste 0 989.6 -1.6 78
2019-04-22 07:00:00 9.4 4 Este 13 Este 0 990 -1.7 80
2019-04-22 06:00:00 10.2 7 Este 11 Este 0 990.6 -2.2 75
2019-04-22 05:00:00 10.8 2 Este 15 Nordeste 0 991.2 -2.6 73
2019-04-22 04:00:00 12.3 9 Nordeste 14 Nordeste 0 991.7 -2.5 66
2019-04-22 03:00:00 12.9 9 Nordeste 12 Nordeste 0 992.8 -2.2 65
2019-04-22 02:00:00 13.8 4 Norte 13 Este 0 993.8 -1.6 63
2019-04-22 01:00:00 14.1 2 Nordeste 10 Norte 0 994.2 -1.1 72
2019-04-22 00:00:00 15.3 4 Noroeste 13 Nordeste 0 995 -0.1 69
2019-04-21 23:00:00 16.7 4 Norte 17 Norte 0 995.4 0.2 62
2019-04-21 22:00:00 17.7 10 Noroeste 31 Norte 0 995.3 -0.1 59
2019-04-21 21:00:00 19.6 14 Noroeste 34 Noroeste 0 995.1 -0.4 54
2019-04-21 20:00:00 21.1 17 Noroeste 32 Noroeste 0.6 995.2 -1 51
2019-04-21 19:00:00 21.1 16 Noroeste 42 Norte 0 995.4 -1.9 50
2019-04-21 18:00:00 23.8 11 Nordeste 27 Nordeste 0 995.5 -2.5 32
2019-04-21 17:00:00 24.6 14 Norte 32 Noroeste 0 996.2 -2.8 27
2019-04-21 16:00:00 24.8 9 Norte 28 Nordeste 0 997.3 -2.7 29
2019-04-21 15:00:00 24.1 15 Nordeste 36 Nordeste 0 998 -2.8 34
2019-04-21 14:00:00 23.7 13 Nordeste 32 Norte 0 999 -2.2 36
2019-04-21 13:00:00 23.2 9 Norte 27 Nordeste 0 1000 -1.3 36
2019-04-21 12:00:00 20.3 10 Oeste 14 Oeste 0 1000.8 -0.6 48
2019-04-21 11:00:00 18.4 2 Oeste 9 Este 0 1001.2 0 51
2019-04-21 10:00:00 16.7 5 Nordeste 14 Nordeste 0 1001.3 0.3 47
2019-04-21 09:00:00 14 9 Nordeste 16 Nordeste 0 1001.4 0.6 50
2019-04-21 08:00:00 13.5 9 Nordeste 19 Norte 0 1001.2 0.2 50
2019-04-21 07:00:00 13.4 7 Nordeste 13 Nordeste 0 1001 -0.2 50
2019-04-21 06:00:00 14 5 Este 18 Norte 0 1000.8 -0.7 49
2019-04-21 05:00:00 14.6 3 Nordeste 18 Nordeste 0 1001 -1.2 48
2019-04-21 04:00:00 15.7 8 Nordeste 27 Nordeste 0 1001.2 -1.6 44
2019-04-21 03:00:00 15.8 7 Norte 33 Norte 0 1001.5 -1.3 45
2019-04-21 02:00:00 16.5 11 Nordeste 25 Nordeste 0 1002.2 -1 45
2019-04-21 01:00:00 16.8 10 Nordeste 34 Norte 0 1002.8 0.5 45
2019-04-21 00:00:00 17.4 9 Nordeste 33 Nordeste 0 1002.8 1.1 43
2019-04-20 23:00:00 18.7 9 Norte 39 Noroeste 0 1003.2 1.9 44
2019-04-20 22:00:00 20.3 16 Noroeste 40 Noroeste 0 1002.3 0.8 41
2019-04-20 21:00:00 22 16 Norte 44 Norte 0 1001.7 0.1 35
2019-04-20 20:00:00 23.2 15 Norte 38 Noroeste 0 1001.3 -0.9 31
2019-04-20 19:00:00 24.5 12 Norte 41 Norte 0 1001.5 -1.2 31
2019-04-20 18:00:00 24.7 13 Norte 35 Nordeste 0 1001.6 -1.4 30
2019-04-20 17:00:00 26.9 15 Norte 40 Noroeste 0 1002.2 -1.6 30
2019-04-20 16:00:00 26.8 11 Norte 34 Norte 0 1002.7 -1.5 33
2019-04-20 15:00:00 26.1 12 Norte 35 Nordeste 0 1003 -1.5 33
2019-04-20 14:00:00 24.5 11 Norte 39 Nordeste 0 1003.8 -1.2 37
2019-04-20 13:00:00 22.6 11 Norte 32 Norte 0 1004.2 -1.4 45
2019-04-20 12:00:00 21.3 13 Noroeste 31 Norte 0 1004.5 -1.4 46
2019-04-20 11:00:00 17.3 4 Oeste 14 Norte 0 1005 -1.1 62
2019-04-20 10:00:00 14.3 3 Noroeste 11 Nordeste 0 1005.6 -0.3 70
2019-04-20 09:00:00 11.3 7 Nordeste 13 Nordeste 0 1005.9 -0.2 79
2019-04-20 08:00:00 11.7 6 Nordeste 11 Norte 0 1006.1 -0.4 78
2019-04-20 07:00:00 12.7 4 Sudeste 14 Este 0 1005.9 -0.7 75
2019-04-20 06:00:00 13.7 6 Norte 13 Norte 0 1006.1 -0.7 70
2019-04-20 05:00:00 14.8 11 Nordeste 23 Nordeste 0 1006.5 -0.7 67
2019-04-20 04:00:00 15 7 Nordeste 23 Nordeste 0 1006.6 -0.7 70
2019-04-20 03:00:00 14.9 11 Nordeste 22 Nordeste 0 1006.8 -0.5 73
2019-04-20 02:00:00 14.9 6 Nordeste 18 Norte 0 1007.2 0.5 75
2019-04-20 01:00:00 15 6 Nordeste 21 Nordeste 0 1007.3 1.7 76
2019-04-20 00:00:00 15.5 3 Norte 18 Noroeste 0 1007.3 2.9 74
2019-04-19 23:00:00 16.6 6 Nordeste 12 Nordeste 0 1006.7 3.2 68
2019-04-19 22:00:00 17.7 5 Nordeste 20 Norte 0 1005.6 2.6 63
2019-04-19 21:00:00 19.4 8 Norte 29 Nordeste 0 1004.4 2 57
2019-04-19 20:00:00 20.9 15 Norte 32 Noroeste 0 1003.5 1.1 55
2019-04-19 19:00:00 22.8 10 Nordeste 23 Nordeste 0 1003 0.4 39
2019-04-19 18:00:00 23.9 8 Nordeste 20 Oeste 0 1002.4 -0.3 38
2019-04-19 17:00:00 22.1 15 Noroeste 23 Noroeste 0 1002.4 -0.2 53
2019-04-19 16:00:00 22.4 5 Nordeste 21 Este 0 1002.6 0.2 46
2019-04-19 15:00:00 19.8 7 Norte 20 Noroeste 0 1002.7 0.8 59
2019-04-19 14:00:00 19.9 9 Nordeste 20 Nordeste 0 1002.6 0.8 55
2019-04-19 13:00:00 18.9 8 Norte 31 Nordeste 0 1002.4 0.3 59
2019-04-19 12:00:00 17.4 11 Norte 37 Norte 0 1001.9 0.1 67
2019-04-19 11:00:00 15.4 13 Norte 31 Noroeste 0 1001.8 0.6 74
2019-04-19 10:00:00 13.4 8 Norte 30 Norte 0 1002.1 1.3 82
2019-04-19 09:00:00 12.8 9 Norte 26 Norte 0 1001.8 0.8 85
2019-04-19 08:00:00 12.3 6 Norte 20 Norte 0 1001.2 0.1 85
2019-04-19 07:00:00 11.9 8 Noroeste 19 Norte 0 1000.8 -0.7 85
2019-04-19 06:00:00 11.3 5 Noroeste 19 Nordeste 0 1001 -0.7 85
2019-04-19 05:00:00 11.2 3 Norte 14 Noroeste 0 1001.1 -1.1 83
2019-04-19 04:00:00 11.8 6 Nordeste 14 Nordeste 0 1001.5 -0.5 81
2019-04-19 03:00:00 11.6 4 Nordeste 12 Norte 0 1001.7 -0.3 84
2019-04-19 02:00:00 11.6 6 Norte 12 Norte 0 1002.2 0.2 84
2019-04-19 01:00:00 12 5 Norte 11 Norte 0 1002 0.8 86
2019-04-19 00:00:00 13 5 Norte 10 Norte 0 1002 1.7 83
2019-04-18 23:00:00 13.7 2 Norte 14 Norte 0 1002 2.4 80
2019-04-18 22:00:00 14.4 8 Noroeste 15 Norte 0 1001.2 1.9 77
2019-04-18 21:00:00 15.2 3 Norte 19 Noroeste 0 1000.3 1.1 77
2019-04-18 20:00:00 16.2 8 Sudoeste 13 Sudoeste 0 999.6 0.8 75
2019-04-18 19:00:00 15.1 8 Oeste 18 Sudoeste 0 999.3 0.1 79
2019-04-18 18:00:00 15.4 9 Sudoeste 19 Sudoeste 0 999.2 0.4 72
2019-04-18 17:00:00 16.7 6 Oeste 13 Oeste 0 998.8 0.2 69
2019-04-18 16:00:00 14.1 4 Noroeste 22 Noroeste 2.6 999.2 0.5 87
2019-04-18 15:00:00 18.2 14 Sudoeste 25 Sudoeste 0 998.8 0.3 61
2019-04-18 14:00:00 18.8 7 Sur 14 Sur 0 998.6 0.1 52
2019-04-18 13:00:00 17.2 5 Oeste 18 Sudeste 0 998.7 0.6 65
2019-04-18 12:00:00 15.1 8 Sudeste 23 Sudeste 0 998.5 0.8 69
2019-04-18 11:00:00 15.3 8 Sudeste 19 Sudeste 0 998.5 1.6 73
2019-04-18 10:00:00 13.2 3 Sur 13 Sudeste 0 998.1 1.9 83
2019-04-18 09:00:00 11.1 7 Este 13 Este 0 997.7 1.9 92
2019-04-18 08:00:00 11 5 Este 12 Sudeste 0 996.9 1.4 93
2019-04-18 07:00:00 10.8 6 Este 9 Este 0 996.2 0.7 94
2019-04-18 06:00:00 10.9 4 Este 15 Este 0.2 995.8 0.2 95
2019-04-18 05:00:00 11 8 Este 19 Este 0 995.5 0.1 95
2019-04-18 04:00:00 11.1 6 Sudeste 17 Sur 2 995.5 0.4 93
2019-04-18 03:00:00 11.5 3 Este 12 Sudeste 0 995.6 0.7 94
2019-04-18 02:00:00 11.5 4 Sudeste 9 Sudeste 0 995.4 1 94
2019-04-18 01:00:00 11.8 6 Sudeste 18 Sudeste 0.8 995.1 1.4 93
2019-04-18 00:00:00 12 8 Sudeste 19 Sudeste 0.4 994.9 1.7 93
2019-04-17 23:00:00 12.2 2 Este 12 Sudeste 0.6 994.4 1.4 92
2019-04-17 22:00:00 12.4 7 Sudeste 15 Sudeste 0.4 993.7 0.9 93
2019-04-17 21:00:00 12.8 0 Calma 7 Sudeste 0 993.2 0.7 93
2019-04-17 20:00:00 13 2 Noroeste 7 Norte 0.2 993 0.6 92
2019-04-17 19:00:00 13 3 Oeste 11 Sur 1 992.8 0.5 93
2019-04-17 18:00:00 12.9 5 Sur 14 Sudoeste 2.4 992.5 0.4 93
2019-04-17 17:00:00 13.4 6 Sudoeste 13 Sudoeste 1.2 992.4 0.2 93
2019-04-17 16:00:00 14.1 5 Sudoeste 21 Sur 0.8 992.3 0.1 88
2019-04-17 15:00:00 14.9 12 Sur 35 Sur 0.2 992.1 -0.1 78
2019-04-17 14:00:00 15.8 10 Sudeste 27 Sudeste 0 992.2 -0.2 67
2019-04-17 13:00:00 15.6 11 Sudeste 30 Sudeste 0 992.2 -0.3 62
2019-04-17 12:00:00 15.5 9 Sudeste 28 Sudeste 0 992.2 -0.5 60
2019-04-17 11:00:00 13.6 3 Sur 9 Norte 0 992.4 -0.1 74
2019-04-17 10:00:00 12.9 4 Sur 12 Sur 0 992.5 0.1 72
2019-04-17 09:00:00 11.8 3 Este 8 Este 0 992.7 0.5 74
2019-04-17 08:00:00 11.3 5 Sudeste 9 Sudeste 0 992.5 0 74
2019-04-17 07:00:00 10.9 4 Sudeste 12 Sudeste 0 992.4 -0.7 81
2019-04-17 06:00:00 11.7 10 Este 15 Este 0 992.2 -1.1 74
2019-04-17 05:00:00 10.9 6 Sudeste 13 Sudeste 0 992.5 -1.5 82
2019-04-17 04:00:00 10.6 4 Nordeste 9 Nordeste 0 993.1 -1.8 86
2019-04-17 03:00:00 11 2 Sudeste 6 Sur 0 993.3 -2.8 84
2019-04-17 02:00:00 11.5 4 Este 17 Nordeste 0 994 -2.8 82
2019-04-17 01:00:00 11.6 8 Este 16 Este 0 994.9 -2.4 81
2019-04-17 00:00:00 12 8 Nordeste 13 Este 0 996.1 -1.1 79
2019-04-16 23:00:00 12.5 4 Nordeste 8 Nordeste 0 996.8 -0.6 74
2019-04-16 22:00:00 13.3 5 Sudoeste 10 Sudoeste 0 997.3 -0.7 70
2019-04-16 21:00:00 14.5 3 Sur 7 Sudoeste 0 997.2 -1.3 68
2019-04-16 20:00:00 15.3 3 Sur 16 Sudoeste 0 997.4 -1.6 65
2019-04-16 19:00:00 16 11 Sudoeste 21 Sudoeste 0 998 -2.1 60
2019-04-16 18:00:00 17.1 12 Sudoeste 21 Sudoeste 0 998.5 -2.2 60
2019-04-16 17:00:00 18 4 Sur 12 Sudoeste 0 999 -2.3 55
2019-04-16 16:00:00 16.8 8 Oeste 30 Sudoeste 0 1000.1 -2 57
2019-04-16 15:00:00 17.9 14 Sur 31 Sur 0 1000.7 -1.9 57
2019-04-16 14:00:00 17.2 13 Sur 23 Sur 0 1001.3 -1.5 54
2019-04-16 13:00:00 16 10 Sur 22 Sur 0 1002.1 -0.9 61
2019-04-16 12:00:00 14.7 12 Sur 21 Sudeste 0 1002.6 -0.3 62
2019-04-16 11:00:00 12.8 4 Sudoeste 8 Sudoeste 0 1002.8 -0.3 73
2019-04-16 10:00:00 11.2 3 Noroeste 8 Nordeste 0 1003 -0.1 80
2019-04-16 09:00:00 9.1 8 Nordeste 15 Este 0 1002.9 -0.6 86
2019-04-16 08:00:00 8.4 5 Sudeste 10 Nordeste 0 1003.1 -0.6 90
2019-04-16 07:00:00 8.8 4 Este 11 Este 0 1003.1 -0.7 89
2019-04-16 06:00:00 9 6 Este 12 Este 0 1003.5 -0.5 88
2019-04-16 05:00:00 9.7 5 Este 10 Este 0 1003.7 -0.7 86
2019-04-16 04:00:00 10 5 Sudeste 9 Este 0 1003.8 -0.7 87
2019-04-16 03:00:00 10.7 2 Oeste 8 Sur 0 1004 -0.2 87
2019-04-16 02:00:00 11.1 3 Sudeste 6 Sudeste 0 1004.4 0.4 85
2019-04-16 01:00:00 10.9 0 Calma 5 Nordeste 0 1004.5 0.9 87
2019-04-16 00:00:00 10.9 3 Norte 13 Sudeste 0 1004.2 1.5 87
2019-04-15 23:00:00 11.2 7 Sudeste 12 Sudeste 0 1004 2.1 84
2019-04-15 22:00:00 11.4 6 Sudeste 17 Sudoeste 0 1003.6 2 84
2019-04-15 21:00:00 12.3 10 Sudoeste 24 Sudoeste 0 1002.7 1.9 80
2019-04-15 20:00:00 14.3 13 Sudoeste 26 Sudoeste 0 1001.9 1.8 73
2019-04-15 19:00:00 14.4 13 Sudoeste 29 Sudoeste 0 1001.6 2.2 72
2019-04-15 18:00:00 14.4 21 Sudoeste 36 Sudoeste 0 1000.8 1.9 70
2019-04-15 17:00:00 14.3 18 Sudoeste 33 Sudoeste 0 1000.1 1.8 75
2019-04-15 16:00:00 15.1 19 Sudoeste 39 Sudoeste 0 999.4 1.4 72
2019-04-15 15:00:00 14.2 19 Sudoeste 45 Sudoeste 0 998.9 1.8 79
2019-04-15 14:00:00 13.1 23 Sudoeste 43 Sudoeste 0 998.3 1.8 87
2019-04-15 13:00:00 12.4 18 Sudoeste 34 Sur 0.2 998 2.3 91
2019-04-15 12:00:00 12 10 Sur 22 Sudeste 2.6 997.1 2.3 95
2019-04-15 11:00:00 12.4 8 Sudoeste 30 Sudoeste 0.2 996.5 1.5 93
2019-04-15 10:00:00 12.9 22 Sudoeste 42 Sudoeste 0.2 995.7 1 91
2019-04-15 09:00:00 14.2 15 Sur 41 Sudoeste 1.2 994.8 -0.1 91
2019-04-15 08:00:00 14.8 14 Sur 30 Sur 0 995 -0.1 87
2019-04-15 07:00:00 14.9 14 Sur 31 Sur 0 994.7 -1.2 88
2019-04-15 06:00:00 15.1 14 Sur 34 Sur 0 994.9 -2 89
2019-04-15 05:00:00 15.3 4 Sur 33 Sur 0 995.1 -2.5 92
2019-04-15 04:00:00 16 11 Sur 26 Sur 0 995.9 -2.4 89
2019-04-15 03:00:00 16.2 12 Sur 33 Sur 0 996.9 -2 91
2019-04-15 02:00:00 16.1 8 Sur 18 Sudeste 0 997.6 -1.8 91
2019-04-15 01:00:00 15.9 6 Sudeste 13 Sudeste 0 998.3 -1.2 93
2019-04-15 00:00:00 16 4 Sur 15 Sur 0 998.9 -0.7 92
2019-04-14 23:00:00 16.1 5 Sudeste 14 Sudeste 0 999.4 -0.3 93
2019-04-14 22:00:00 16.2 6 Sudeste 14 Sudeste 0 999.5 -0.5 93
2019-04-14 21:00:00 16.3 7 Sur 14 Sur 0 999.6 -1.1 95
2019-04-14 20:00:00 16.8 2 Sur 13 Sur 0.2 999.7 -1.6 96
2019-04-14 19:00:00 16.3 9 Sur 19 Sur 3.2 1000 -2.2 97
2019-04-14 18:00:00 16.2 5 Sur 15 Sudoeste 2.4 1000.7 -1.5 96
2019-04-14 17:00:00 16.9 9 Sudoeste 19 Sudoeste 0 1001.3 -1.1 91
2019-04-14 16:00:00 17.2 8 Sudoeste 18 Sudoeste 0 1002.2 -0.4 90
2019-04-14 15:00:00 18.7 9 Sudoeste 15 Sudoeste 0 1002.2 -0.6 81
2019-04-14 14:00:00 18.6 7 Sudoeste 20 Sudoeste 0 1002.4 -0.3 80
2019-04-14 13:00:00 18.9 9 Sur 24 Sur 0 1002.6 0 77
2019-04-14 12:00:00 17.9 11 Sur 17 Sur 0 1002.8 0.3 81
2019-04-14 11:00:00 16.6 6 Oeste 10 Noroeste 0 1002.7 0.2 87
2019-04-14 10:00:00 15.2 0 Calma 9 Nordeste 0 1002.6 0.1 91
2019-04-14 09:00:00 14.4 5 Norte 9 Noroeste 0 1002.5 -0.4 92
2019-04-14 08:00:00 14.2 4 Nordeste 7 Nordeste 0 1002.5 -0.8 93
2019-04-14 07:00:00 14 4 Norte 6 Norte 0 1002.5 -1 93
2019-04-14 06:00:00 13.9 4 Noroeste 7 Noroeste 0 1002.9 -1.2 93
2019-04-14 05:00:00 14 3 Norte 6 Sudoeste 0 1003.3 -0.9 93
2019-04-14 04:00:00 14 2 Sudeste 6 Noroeste 0 1003.5 -1.4 92
2019-04-14 03:00:00 14.1 3 Noroeste 6 Oeste 0 1004.1 -1.1 91
2019-04-14 02:00:00 14.3 3 Norte 12 Sudeste 0 1004.2 -1.2 90
2019-04-14 01:00:00 14.2 2 Sur 9 Sur 0 1004.9 -0.2 89
2019-04-14 00:00:00 14.1 3 Sur 9 Sudeste 0 1005.2 0.6 90
2019-04-13 23:00:00 14.3 2 Sudoeste 16 Sudeste 0 1005.4 1.1 89
2019-04-13 22:00:00 14 6 Sur 13 Sudeste 0 1005.1 0.7 88
2019-04-13 21:00:00 14.2 5 Sur 17 Sudeste 0 1004.6 0.3 89
2019-04-13 20:00:00 14.1 8 Sudeste 17 Sudeste 0 1004.3 -0.3 89
2019-04-13 19:00:00 14.3 3 Sudeste 9 Sudeste 0 1004.4 -0.6 89
2019-04-13 18:00:00 13.7 4 Noroeste 6 Noroeste 0.2 1004.3 -0.6 93
2019-04-13 17:00:00 13.3 4 Sur 9 Sur 0.2 1004.6 -0.1 92
2019-04-13 16:00:00 14 4 Sur 22 Sur 0 1005 0.2 87
2019-04-13 15:00:00 15.5 10 Sur 24 Sur 0 1004.9 0 69
2019-04-13 14:00:00 16.4 11 Sur 19 Sur 0 1004.7 0 52
2019-04-13 13:00:00 15.7 6 Sur 16 Sur 0 1004.8 0.2 53
2019-04-13 12:00:00 14.7 4 Oeste 8 Oeste 0 1004.9 0.3 69
2019-04-13 11:00:00 13 0 Calma 7 Nordeste 0 1004.7 0.1 73
2019-04-13 10:00:00 11.8 4 Nordeste 6 Nordeste 0 1004.6 0.3 80
2019-04-13 09:00:00 10.3 0 Calma 14 Nordeste 0 1004.6 0.2 83
2019-04-13 08:00:00 10 2 Nordeste 9 Este 0 1004.6 0.1 82
2019-04-13 07:00:00 9.8 9 Este 12 Nordeste 0 1004.3 -0.8 80
2019-04-13 06:00:00 9.8 5 Este 9 Nordeste 0 1004.4 -1 80
2019-04-13 05:00:00 9.7 3 Este 15 Nordeste 0 1004.5 -1.2 80
2019-04-13 04:00:00 10 8 Nordeste 12 Nordeste 0 1005.1 -0.4 78
2019-04-13 03:00:00 10.2 6 Este 18 Nordeste 0 1005.4 -0.4 77
2019-04-13 02:00:00 10.4 8 Nordeste 14 Este 0 1005.7 0 77
2019-04-13 01:00:00 10.7 7 Nordeste 12 Este 0 1005.5 0 77
2019-04-13 00:00:00 11.3 6 Este 12 Nordeste 0 1005.8 1 76
2019-04-12 23:00:00 11.8 6 Este 9 Este 0 1005.7 1 73
2019-04-12 22:00:00 12.4 2 Oeste 9 Sudoeste 0 1005.5 1 76
2019-04-12 21:00:00 13.3 6 Sur 14 Sudoeste 0 1004.8 0.1 66
2019-04-12 20:00:00 15.1 6 Sudoeste 15 Sudoeste 0 1004.7 -0.5 61
2019-04-12 19:00:00 17 7 Sudoeste 18 Sudoeste 0 1004.5 -1.3 52
2019-04-12 18:00:00 18 9 Sudoeste 21 Sudoeste 0 1004.7 -1.5 45
2019-04-12 17:00:00 17 12 Sudoeste 22 Oeste 0 1005.2 -1.2 55
2019-04-12 16:00:00 17.2 10 Sudoeste 23 Sudoeste 0 1005.8 -0.8 57
2019-04-12 15:00:00 16.2 14 Sudoeste 23 Sudoeste 0 1006.2 -0.3 62
2019-04-12 14:00:00 16.1 8 Sudoeste 21 Sudoeste 0 1006.4 0.1 67
2019-04-12 13:00:00 16.8 9 Sudoeste 19 Oeste 0 1006.6 0.2 53
2019-04-12 12:00:00 14.5 4 Sudoeste 7 Sudoeste 0 1006.5 0 62
2019-04-12 11:00:00 12.1 4 Nordeste 16 Nordeste 0 1006.3 -0.1 68
2019-04-12 10:00:00 9.2 9 Este 18 Este 0 1006.4 0.1 72
2019-04-12 09:00:00 6.7 12 Nordeste 23 Nordeste 0 1006.5 0.2 81
2019-04-12 08:00:00 6 14 Nordeste 19 Nordeste 0 1006.4 0.1 85
2019-04-12 07:00:00 6.5 12 Nordeste 21 Nordeste 0 1006.3 -0.1 84
2019-04-12 06:00:00 6.9 6 Este 17 Nordeste 0 1006.3 -0.6 84
2019-04-12 05:00:00 7.4 7 Este 17 Nordeste 0 1006.3 -0.7 85
2019-04-12 04:00:00 8.4 6 Este 13 Nordeste 0 1006.4 -0.7 83
2019-04-12 03:00:00 8.7 5 Nordeste 7 Nordeste 0 1006.9 -0.3 85
2019-04-12 02:00:00 10 8 Nordeste 13 Nordeste 0 1007 -0.2 79
2019-04-12 01:00:00 10.1 7 Este 13 Nordeste 0 1007.1 0.1 81
2019-04-12 00:00:00 10.7 6 Nordeste 10 Nordeste 0 1007.2 0.5 80
2019-04-11 23:00:00 11.5 8 Este 12 Este 0 1007.2 0.6 75
2019-04-11 22:00:00 12.4 3 Sudeste 10 Sudeste 0 1007 0.5 70
2019-04-11 21:00:00 13.8 5 Sur 17 Sudoeste 0 1006.7 0.2 65
2019-04-11 20:00:00 16.1 11 Sudoeste 21 Sudoeste 0 1006.6 0.1 58
2019-04-11 19:00:00 17.2 10 Sudoeste 29 Sudoeste 0 1006.5 -0.3 53
2019-04-11 18:00:00 17.4 15 Sudoeste 28 Sudoeste 0 1006.5 -0.7 56
2019-04-11 17:00:00 17.7 14 Sudoeste 30 Sudoeste 0 1006.5 -1.2 54
2019-04-11 16:00:00 16.9 13 Sudoeste 25 Oeste 0 1006.8 -1.4 56
2019-04-11 15:00:00 17.3 9 Sudoeste 18 Sudoeste 0 1007.2 -1.2 58
2019-04-11 14:00:00 16.5 9 Sudoeste 16 Sudoeste 0 1007.7 -0.6 53
2019-04-11 13:00:00 15.4 4 Noroeste 9 Noroeste 0 1008.2 0 59
2019-04-11 12:00:00 13.1 4 Oeste 9 Oeste 0 1008.4 0.4 69
2019-04-11 11:00:00 10.2 4 Sudoeste 5 Sudoeste 0 1008.3 0.7 80
2019-04-11 10:00:00 8.2 5 Nordeste 12 Nordeste 0 1008.2 0.7 83
2019-04-11 09:00:00 5.8 8 Este 17 Nordeste 0 1008 0.5 89
2019-04-11 08:00:00 5.6 12 Este 17 Este 0 1007.6 0 90
2019-04-11 07:00:00 5.5 9 Este 15 Este 0 1007.5 0 93
2019-04-11 06:00:00 6.2 9 Nordeste 15 Nordeste 0 1007.5 -0.2 91
2019-04-11 05:00:00 6.6 8 Nordeste 13 Este 0 1007.6 -0.2 92
2019-04-11 04:00:00 7.3 7 Este 11 Este 0 1007.5 -0.3 90
2019-04-11 03:00:00 7.6 6 Nordeste 9 Nordeste 0 1007.7 0.1 91
2019-04-11 02:00:00 8.4 6 Este 13 Nordeste 0 1007.8 0.2 87
2019-04-11 01:00:00 8.8 5 Nordeste 13 Nordeste 0 1007.8 1 85
2019-04-11 00:00:00 9.7 5 Norte 9 Este 0 1007.6 1.7 83
2019-04-10 23:00:00 10.7 4 Norte 10 Norte 0 1007.6 2.2 79
2019-04-10 22:00:00 11.8 2 Noroeste 12 Norte 0 1006.8 1.8 73
2019-04-10 21:00:00 13.6 7 Noroeste 19 Norte 0 1005.9 1.3 65
2019-04-10 20:00:00 15.7 9 Noroeste 23 Oeste 0 1005.4 0.8 60
2019-04-10 19:00:00 17.2 11 Oeste 27 Oeste 0 1005 0.1 65
2019-04-10 18:00:00 16.5 17 Oeste 30 Noroeste 0 1004.6 -0.4 63
2019-04-10 17:00:00 15.6 14 Oeste 27 Noroeste 0 1004.6 -0.7 68
2019-04-10 16:00:00 15.2 9 Oeste 23 Oeste 0.2 1004.9 -0.4 68
2019-04-10 15:00:00 13.7 14 Noroeste 21 Noroeste 0.2 1005 -0.1 77
2019-04-10 14:00:00 12.5 11 Noroeste 23 Oeste 0.2 1005.3 0.6 81
2019-04-10 13:00:00 13.2 8 Oeste 19 Oeste 0 1005.3 0.8 75
2019-04-10 12:00:00 12.3 5 Oeste 9 Oeste 0 1005.1 1.1 82
2019-04-10 11:00:00 11.1 3 Sudoeste 8 Sudoeste 0 1004.7 1.4 85
2019-04-10 10:00:00 9.2 0 Calma 10 Norte 0 1004.5 1.7 96
2019-04-10 09:00:00 8.1 4 Nordeste 7 Norte 0 1004 1.4 95
2019-04-10 08:00:00 8.7 4 Nordeste 24 Sudoeste 0 1003.3 0.9 93
2019-04-10 07:00:00 9.3 3 Oeste 9 Noroeste 0.2 1002.8 0.7 96
2019-04-10 06:00:00 9.7 5 Nordeste 14 Sur 0.2 1002.6 0.2 96
2019-04-10 05:00:00 9.7 3 Sur 9 Norte 0.4 1002.4 0.1 97
2019-04-10 04:00:00 9.5 4 Nordeste 15 Sudoeste 0 1002.1 -0.5 96
2019-04-10 03:00:00 9.4 4 Este 15 Sur 0.8 1002.4 0.5 95
2019-04-10 02:00:00 9.1 9 Sudeste 15 Sudeste 0.8 1002.3 0.7 95
2019-04-10 01:00:00 9.3 7 Noroeste 22 Oeste 1.2 1002.6 1.5 93
2019-04-10 00:00:00 10.4 7 Oeste 32 Sudoeste 0.8 1001.9 1.4 92
2019-04-09 23:00:00 10.6 20 Oeste 40 Sudoeste 0.4 1001.6 1.6 88
2019-04-09 22:00:00 10.6 13 Sudoeste 28 Noroeste 0 1001.1 1.6 88
2019-04-09 21:00:00 10 9 Sudoeste 41 Oeste 2 1000.5 1.3 89
2019-04-09 20:00:00 10.9 13 Sudoeste 28 Sudoeste 0.2 1000 0.9 89
2019-04-09 19:00:00 10.2 13 Oeste 36 Oeste 1.6 999.5 0.5 90
2019-04-09 18:00:00 11.5 22 Sudoeste 47 Sudoeste 0.2 999.2 0.3 89
2019-04-09 17:00:00 11.8 14 Sudoeste 47 Sudoeste 0.6 999.1 0.1 87
2019-04-09 16:00:00 11.7 14 Sudoeste 52 Sudoeste 0.4 999 -0.3 88
2019-04-09 15:00:00 12.4 23 Sudoeste 48 Sur 0 998.9 -0.3 79
2019-04-09 14:00:00 12.8 22 Sudoeste 42 Sudoeste 0.2 999 0.3 77
2019-04-09 13:00:00 10.7 14 Sudoeste 28 Sudoeste 0.8 999.3 1.1 85
2019-04-09 12:00:00 10 6 Sur 36 Sudoeste 0.2 999.2 1.7 82
2019-04-09 11:00:00 8.7 13 Sudoeste 36 Oeste 3.4 998.7 1.6 85
2019-04-09 10:00:00 9.3 5 Sur 25 Sudoeste 1.4 998.2 1.9 95
2019-04-09 09:00:00 8.3 5 Sur 10 Noroeste 0 997.5 1.5 95
2019-04-09 08:00:00 8.1 5 Sudeste 9 Este 0 997.1 2.1 93
2019-04-09 07:00:00 8.8 4 Nordeste 22 Sudoeste 0.4 996.3 0.9 93
2019-04-09 06:00:00 9.6 14 Sudoeste 28 Sur 2.8 996 0.4 92
2019-04-09 05:00:00 9.5 13 Sur 23 Sudeste 2 995 -1 93
2019-04-09 04:00:00 9.4 11 Sur 34 Sur 2.6 995.4 -0.9 93
2019-04-09 03:00:00 9.7 15 Sur 31 Sur 0 995.6 -0.6 90
2019-04-09 02:00:00 9.1 12 Sudeste 29 Sur 1.4 996 -0.7 90
2019-04-09 01:00:00 9.5 13 Sur 39 Sur 3.6 996.3 0.1 92
2019-04-09 00:00:00 10.4 15 Sur 37 Sur 0 996.2 0.3 83
2019-04-08 23:00:00 9.8 15 Sur 37 Sur 0 996.7 0.1 87
2019-04-08 22:00:00 10 19 Sur 40 Sur 2.2 996.2 -0.7 86
2019-04-08 21:00:00 11.9 19 Sur 45 Sur 0 995.9 -1 76
2019-04-08 20:00:00 12.7 16 Sur 35 Sudoeste 0 996.6 -0.7 68
2019-04-08 19:00:00 13.9 20 Sur 55 Sur 0 996.9 -0.9 65
2019-04-08 18:00:00 13.9 22 Sur 50 Sur 0 996.9 -1.2 68
2019-04-08 17:00:00 14.8 14 Sur 49 Sudoeste 0 997.3 -0.8 61
2019-04-08 16:00:00 15 27 Sudoeste 57 Sudoeste 0 997.8 -0.6 55
2019-04-08 15:00:00 14.9 20 Sudoeste 48 Sudoeste 0 998.1 -0.4 57
2019-04-08 14:00:00 13.8 22 Sur 42 Sur 0 998.1 -0.3 64
2019-04-08 13:00:00 13.7 14 Sur 39 Sudoeste 0 998.4 0.2 66
2019-04-08 12:00:00 13.3 14 Sur 31 Sur 0 998.5 0.4 73
2019-04-08 11:00:00 11.8 14 Sur 25 Sur 0 998.4 0.6 76
2019-04-08 10:00:00 10.2 2 Noroeste 9 Sudeste 0 998.2 0.5 90
2019-04-08 09:00:00 8.5 5 Sudeste 12 Sur 0 998.1 1 92
2019-04-08 08:00:00 8.4 2 Sur 32 Sur 0.6 997.8 0.6 91
2019-04-08 07:00:00 9.4 14 Sur 28 Sur 1.4 997.7 0.9 91
2019-04-08 06:00:00 9.8 6 Sur 14 Sur 0 997.1 0.7 89
2019-04-08 05:00:00 10 4 Sur 20 Sudoeste 0 997.2 1.5 93
2019-04-08 04:00:00 10.7 11 Sudoeste 21 Sudoeste 0 996.8 1.5 93
2019-04-08 03:00:00 11 12 Sudoeste 30 Sudoeste 0 996.4 1.5 93
2019-04-08 02:00:00 11.4 14 Sudoeste 28 Sudoeste 0 995.7 2 94
2019-04-08 01:00:00 11.5 12 Sudoeste 22 Sudoeste 0.2 995.3 3 97
2019-04-08 00:00:00 11.6 10 Sudoeste 36 Sudoeste 0.2 994.9 2 94
2019-04-07 23:00:00 12.3 18 Sudoeste 47 Sudoeste 0.4 993.7 0.8 94
2019-04-07 22:00:00 12.1 21 Sur 42 Sur 1 992.3 -0.4 96
2019-04-07 21:00:00 12 7 Sur 29 Sudoeste 3.2 992.9 0.4 98
2019-04-07 20:00:00 12 11 Sur 26 Sur 4.6 992.9 -0.1 97
2019-04-07 19:00:00 11.7 13 Sur 37 Sudeste 5.2 992.7 -1.2 95
2019-04-07 18:00:00 10.6 14 Sudeste 35 Sudeste 2.8 992.5 -2.1 94
2019-04-07 17:00:00 10.4 5 Sudeste 26 Sudeste 2.6 993 -2.3 92
2019-04-07 16:00:00 11 7 Sur 23 Este 0.4 993.9 -1.7 86
2019-04-07 15:00:00 10.6 9 Sudeste 24 Sudeste 0.8 994.6 -1.2 86
2019-04-07 14:00:00 10.2 7 Sudeste 18 Sudeste 0.4 995.3 -0.5 86
2019-04-07 13:00:00 10.5 5 Sur 9 Sur 0 995.6 0 88
2019-04-07 12:00:00 9.2 3 Oeste 8 Noroeste 0 995.8 0.2 89
2019-04-07 11:00:00 8 2 Noroeste 6 Norte 0 995.8 0.6 93
2019-04-07 10:00:00 6.7 2 Nordeste 12 Nordeste 0 995.6 0.7 95
2019-04-07 09:00:00 5.2 6 Nordeste 18 Nordeste 0 995.6 0.8 96
2019-04-07 08:00:00 4.3 13 Nordeste 17 Nordeste 0 995.2 0.7 96
2019-04-07 07:00:00 4.4 7 Este 17 Nordeste 0.2 994.9 0.6 96
2019-04-07 06:00:00 4.4 10 Nordeste 15 Nordeste 0 994.8 0.6 97
2019-04-07 05:00:00 4.7 9 Nordeste 15 Nordeste 0 994.5 0.5 96
2019-04-07 04:00:00 5.4 4 Nordeste 10 Nordeste 0 994.3 0.7 96
2019-04-07 03:00:00 6 5 Nordeste 11 Este 0 994.2 1.2 97
2019-04-07 02:00:00 6.1 6 Nordeste 14 Nordeste 0.4 994 1.3 96
2019-04-07 01:00:00 6.3 6 Nordeste 12 Nordeste 0 993.6 1.5 96
2019-04-07 00:00:00 6.7 9 Este 13 Este 0.2 993 1.3 96
2019-04-06 23:00:00 6.7 8 Nordeste 15 Nordeste 0 992.7 1.4 95
2019-04-06 22:00:00 7.6 4 Este 9 Sudeste 0.4 992.1 1.2 94
2019-04-06 21:00:00 7.6 7 Sudeste 33 Sudoeste 1.6 991.7 1.6 93
2019-04-06 20:00:00 8.9 10 Sur 35 Sudoeste 0.4 991.3 1.7 85
2019-04-06 19:00:00 10.1 18 Sudoeste 35 Sudoeste 0 990.9 1.3 78
2019-04-06 18:00:00 11.2 15 Oeste 38 Oeste 0 990.1 0.8 68
2019-04-06 17:00:00 12.6 18 Sudoeste 41 Sudoeste 0 989.6 0.6 69
2019-04-06 16:00:00 12.6 19 Oeste 41 Oeste 0 989.6 1.4 58
2019-04-06 15:00:00 10.5 19 Oeste 44 Oeste 0.2 989.3 2.2 69
2019-04-06 14:00:00 8.4 18 Noroeste 46 Oeste 0.2 989 3 84
2019-04-06 13:00:00 7.8 18 Oeste 45 Oeste 1.2 988.2 3 86
2019-04-06 12:00:00 8 13 Oeste 40 Oeste 1 987.1 3.1 89
2019-04-06 11:00:00 8.2 4 Noroeste 30 Oeste 1.4 986 2.9 91
2019-04-06 10:00:00 7.9 11 Sudoeste 38 Oeste 0.2 985.2 2.7 83
2019-04-06 09:00:00 8 18 Oeste 44 Oeste 0.8 984 1.1 88
2019-04-06 08:00:00 7.7 16 Sudoeste 54 Sudoeste 0.8 983.1 -1.3 89
2019-04-06 07:00:00 6.9 12 Sudoeste 42 Sudoeste 6 982.5 -2.1 93
2019-04-06 06:00:00 7.4 17 Sur 40 Sudoeste 0.4 982.9 -2.3 92
2019-04-06 05:00:00 6.5 8 Sur 47 Oeste 2.4 984.4 -1.9 92
2019-04-06 04:00:00 8.3 17 Sudoeste 39 Sudoeste 0.2 984.6 -2.1 85
2019-04-06 03:00:00 6.9 13 Sur 24 Sur 3 985.2 -2.1 92
2019-04-06 02:00:00 6.3 9 Sudeste 37 Oeste 1.4 986.3 -1.4 93
2019-04-06 01:00:00 7 6 Sur 17 Sur 0.2 986.7 -0.2 91
2019-04-06 00:00:00 6.9 9 Sur 21 Sur 0.8 987.3 0.7 91
2019-04-05 23:00:00 8 6 Oeste 14 Noroeste 0.4 987.7 1.4 91
2019-04-05 22:00:00 8 6 Sudeste 11 Sur 0 986.9 0.9 90
2019-04-05 21:00:00 8.3 4 Sudoeste 9 Sudoeste 0 986.6 0.9 87
2019-04-05 20:00:00 9.3 5 Norte 11 Sudoeste 0.2 986.3 1.5 86
2019-04-05 19:00:00 9.2 5 Sur 14 Sudeste 0.6 986 1.1 85
2019-04-05 18:00:00 7.6 12 Noroeste 36 Noroeste 1.6 985.7 1 85
2019-04-05 17:00:00 11.4 12 Sudoeste 23 Sudoeste 0 984.8 0 75
2019-04-05 16:00:00 9 12 Sur 21 Sur 0 984.9 0.8 87
2019-04-05 15:00:00 9.3 9 Sur 19 Sur 0.2 984.7 0.6 81
2019-04-05 14:00:00 6.7 10 Sudoeste 28 Sudoeste 2.4 984.8 1.3 93
2019-04-05 13:00:00 7.9 9 Sur 22 Sur 0.8 984.1 1 86
2019-04-05 12:00:00 6.7 12 Sur 29 Sudoeste 4.8 984.1 0.5 91
2019-04-05 11:00:00 8.1 9 Sur 21 Sur 0 983.5 0.3 82
2019-04-05 10:00:00 6.6 4 Noroeste 24 Sur 0.2 983.1 0.2 93
2019-04-05 09:00:00 4.9 9 Oeste 23 Sudeste 0.2 983.6 0.8 94
2019-04-05 08:00:00 4.6 4 Sudeste 9 Sudoeste 2.8 983.2 0.1 96
2019-04-05 07:00:00 4.6 6 Norte 11 Este 0 982.9 -0.7 96
2019-04-05 06:00:00 4.9 6 Este 11 Noroeste 0.4 982.8 -0.8 97
2019-04-05 05:00:00 4.9 8 Sudeste 18 Sudeste 0.8 983.1 -0.8 95
2019-04-05 04:00:00 4.9 10 Este 17 Este 1.4 983.6 -0.3 94
2019-04-05 03:00:00 6 5 Sudeste 14 Este 0 983.6 -0.2 91
2019-04-05 02:00:00 6.5 4 Sudoeste 21 Sudoeste 0.4 983.9 -0.1 88
2019-04-05 01:00:00 6.8 6 Sudoeste 13 Sudoeste 0.4 983.9 0 97
2019-04-05 00:00:00 6.9 5 Sudeste 13 Sudeste 0.4 983.8 -0.4 96
2019-04-04 23:00:00 7.2 8 Sudeste 14 Sur 1.8 984 -0.5 96
2019-04-04 22:00:00 7.4 7 Sur 13 Sur 1.6 983.9 -0.5 96
2019-04-04 21:00:00 7.9 5 Sudeste 13 Sudeste 1.8 984.2 -1 96
2019-04-04 20:00:00 8.3 7 Sudeste 33 Sur 3.6 984.5 -1.9 96
2019-04-04 19:00:00 8.4 14 Sur 43 Sudeste 1.6 984.4 -3.5 93
2019-04-04 18:00:00 8.4 17 Sudeste 39 Sur 1.2 985.2 -3.8 92
2019-04-04 17:00:00 8.4 14 Sur 34 Sur 1 986.4 -3.3 90
2019-04-04 16:00:00 8.4 14 Sur 30 Sur 1.4 987.9 -2.8 91
2019-04-04 15:00:00 8.5 15 Sur 36 Sur 1.4 989 -2.4 89
2019-04-04 14:00:00 9 17 Sur 28 Sur 0.2 989.7 -2.4 84
2019-04-04 13:00:00 9.2 12 Sur 28 Sur 0.2 990.7 -2.1 81
2019-04-04 12:00:00 9.6 13 Sur 27 Sudeste 0 991.4 -1.8 72
2019-04-04 11:00:00 7.8 8 Sur 15 Sur 0 992.1 -1.1 78
2019-04-04 10:00:00 5.8 3 Noroeste 6 Nordeste 0 992.8 -0.9 85
2019-04-04 09:00:00 4.5 4 Norte 6 Nordeste 0 993.2 -1.1 89
2019-04-04 08:00:00 4 3 Nordeste 13 Nordeste 0 993.2 -1.7 91
2019-04-04 07:00:00 4.2 6 Este 9 Nordeste 0 993.7 -1.8 88
2019-04-04 06:00:00 3.8 3 Nordeste 14 Este 0 994.3 -2 88
2019-04-04 05:00:00 3.7 3 Norte 15 Nordeste 0 994.9 -2.3 88
2019-04-04 04:00:00 4.2 9 Nordeste 14 Nordeste 0 995.5 -2.3 85
2019-04-04 03:00:00 4.3 5 Nordeste 13 Este 0 996.3 -1.9 85
2019-04-04 02:00:00 4.6 2 Sudeste 5 Nordeste 0 997.2 -1.2 84
2019-04-04 01:00:00 5.3 4 Este 5 Este 0 997.8 -0.7 82
2019-04-04 00:00:00 6.1 3 Nordeste 7 Nordeste 0 998.2 0.3 78
2019-04-03 23:00:00 6.6 5 Nordeste 9 Este 0 998.4 0.6 75
2019-04-03 22:00:00 7.6 4 Nordeste 13 Norte 0 998.5 0.7 70
2019-04-03 21:00:00 8.9 7 Nordeste 25 Noroeste 0 997.9 0.2 65
2019-04-03 20:00:00 10.4 17 Noroeste 33 Noroeste 0 997.8 -0.4 58
2019-04-03 19:00:00 11.5 17 Noroeste 40 Noroeste 0 997.8 -0.9 47
2019-04-03 18:00:00 12.8 19 Noroeste 37 Norte 0 997.7 -1.2 45
2019-04-03 17:00:00 12.1 20 Noroeste 36 Noroeste 0 998.2 -1.6 45
2019-04-03 16:00:00 11.9 24 Noroeste 49 Noroeste 0 998.7 -1.7 51
2019-04-03 15:00:00 12.2 13 Noroeste 32 Noroeste 0 998.9 -1.7 57
2019-04-03 14:00:00 10.1 7 Oeste 40 Oeste 0 999.8 -1.2 76
2019-04-03 13:00:00 9.9 6 Noroeste 37 Noroeste 1.8 1000.4 -0.9 80
2019-04-03 12:00:00 10.2 7 Noroeste 27 Noroeste 0 1000.6 -0.6 63
2019-04-03 11:00:00 9.6 5 Norte 12 Noroeste 0 1001 -0.2 72
2019-04-03 10:00:00 7.4 3 Norte 7 Oeste 0 1001.3 0 82
2019-04-03 09:00:00 6.3 0 Calma 10 Nordeste 0 1001.2 -0.4 91
2019-04-03 08:00:00 6.3 5 Nordeste 10 Norte 0 1001.2 -0.9 88
2019-04-03 07:00:00 6.2 4 Norte 7 Norte 0 1001.3 -1.4 86
2019-04-03 06:00:00 7 3 Norte 7 Norte 0 1001.6 -1.5 85
2019-04-03 05:00:00 6.9 2 Este 10 Norte 0 1002.1 -1.4 86
2019-04-03 04:00:00 6.9 3 Noroeste 6 Este 0 1002.7 -1.2 83
2019-04-03 03:00:00 7.3 3 Este 12 Norte 0 1003.1 -0.9 80
2019-04-03 02:00:00 7.8 5 Noroeste 17 Norte 0 1003.5 -0.5 78
2019-04-03 01:00:00 8.5 9 Norte 15 Norte 0 1003.9 0.4 78
2019-04-03 00:00:00 9.2 6 Norte 18 Norte 0 1004 1 74
2019-04-02 23:00:00 9.9 8 Norte 22 Noroeste 0 1004 1.2 70
2019-04-02 22:00:00 10.9 7 Norte 30 Norte 0 1003.5 1.2 65
2019-04-02 21:00:00 12.2 9 Norte 29 Noroeste 0 1003 0.5 55
2019-04-02 20:00:00 14 15 Noroeste 34 Noroeste 0 1002.8 0.1 54
2019-04-02 19:00:00 15.5 19 Noroeste 32 Oeste 0 1002.3 -0.8 50
2019-04-02 18:00:00 16.3 20 Noroeste 32 Noroeste 0 1002.5 -1.2 50
2019-04-02 17:00:00 17.4 14 Noroeste 29 Noroeste 0 1002.7 -1.6 47
2019-04-02 16:00:00 18 14 Noroeste 25 Noroeste 0 1003.1 -1.5 45
2019-04-02 15:00:00 17 15 Noroeste 29 Oeste 0 1003.7 -1.2 51
2019-04-02 14:00:00 16.2 14 Noroeste 27 Noroeste 0 1004.3 -0.4 53
2019-04-02 13:00:00 16 9 Noroeste 22 Nordeste 0 1004.6 0.1 57
2019-04-02 12:00:00 14.6 9 Nordeste 23 Nordeste 0 1004.9 0.7 60
2019-04-02 11:00:00 13 9 Nordeste 23 Norte 0 1004.7 1 68
2019-04-02 10:00:00 10.9 5 Norte 12 Norte 0 1004.5 1.1 78
2019-04-02 09:00:00 8.9 9 Nordeste 21 Nordeste 0 1004.2 1.2 85
2019-04-02 08:00:00 8.1 8 Nordeste 24 Norte 0 1003.7 0.7 87
2019-04-02 07:00:00 7.4 4 Noroeste 14 Este 0 1003.4 0.1 88
2019-04-02 06:00:00 7.9 8 Este 15 Nordeste 0 1003 -0.5 89
2019-04-02 05:00:00 8.1 4 Nordeste 15 Nordeste 0 1003 0 89
2019-04-02 04:00:00 8.4 7 Nordeste 15 Nordeste 0 1003.3 0 91
2019-04-02 03:00:00 9 10 Este 15 Nordeste 0 1003.5 0.4 89
2019-04-02 02:00:00 10.4 6 Nordeste 19 Nordeste 0 1003 0.5 87
2019-04-02 01:00:00 10.9 13 Este 19 Nordeste 0 1003.3 1.4 88
2019-04-02 00:00:00 11.8 7 Nordeste 14 Nordeste 0 1003.1 1.7 89
2019-04-01 23:00:00 12.7 6 Este 10 Este 0 1002.5 1.6 89
2019-04-01 22:00:00 13.3 3 Este 9 Sudoeste 0 1001.9 1.6 89
2019-04-01 21:00:00 14.1 8 Sudoeste 17 Sudoeste 0 1001.4 1.6 86
2019-04-01 20:00:00 15.6 10 Sudoeste 30 Sudoeste 0 1000.9 1.2 78
2019-04-01 19:00:00 16.7 14 Sudoeste 33 Sudoeste 0 1000.3 0.9 69
2019-04-01 18:00:00 17.3 13 Sudoeste 35 Sudoeste 0 999.8 0.4 60
2019-04-01 17:00:00 17.6 11 Sur 31 Sudoeste 0 999.7 0.3 54
2019-04-01 16:00:00 19.6 15 Sudoeste 28 Sudoeste 0 999.4 -0.2 46
2019-04-01 15:00:00 20.6 13 Sudoeste 23 Sudoeste 0 999.4 -0.3 42
2019-04-01 14:00:00 20.3 10 Sudoeste 20 Sudoeste 0 999.4 0.1 39
2019-04-01 13:00:00 19.8 5 Oeste 10 Sudoeste 0 999.6 0.7 39
2019-04-01 12:00:00 17.2 3 Sudoeste 5 Noroeste 0 999.7 1.3 55
2019-04-01 11:00:00 14 3 Norte 6 Este 0 999.3 1.5 60
2019-04-01 10:00:00 12.5 3 Norte 12 Nordeste 0 998.9 1.7 62
2019-04-01 09:00:00 9.9 8 Nordeste 13 Nordeste 0 998.4 1.4 67
2019-04-01 08:00:00 9.9 0 Calma 7 Nordeste 0 997.8 0.6 67
2019-04-01 07:00:00 9.7 4 Este 17 Este 0 997.2 0 68
2019-04-01 06:00:00 9.4 8 Nordeste 11 Nordeste 0 997 -0.3 68
2019-04-01 05:00:00 10.1 4 Este 15 Nordeste 0 997.2 -0.1 66
2019-04-01 04:00:00 11.5 9 Nordeste 14 Nordeste 0 997.2 -0.1 60
2019-04-01 03:00:00 12.6 5 Nordeste 11 Nordeste 0 997.3 0 56
2019-04-01 02:00:00 12.5 4 Nordeste 6 Este 0 997.3 -0.3 58
2019-04-01 01:00:00 13.4 5 Este 12 Este 0 997.3 -0.1 55
2019-04-01 00:00:00 14.1 9 Este 13 Nordeste 0 997.3 0.3 52
2019-03-31 23:00:00 14.6 6 Este 16 Nordeste 0 997.6 0.8 50
2019-03-31 22:00:00 15.4 9 Nordeste 23 Norte 0 997.4 0.7 48
2019-03-31 21:00:00 16.6 8 Nordeste 18 Nordeste 0 997 -0.1 46
2019-03-31 20:00:00 18.1 8 Nordeste 22 Nordeste 0 996.8 -0.6 43
2019-03-31 19:00:00 18.7 7 Este 21 Norte 0 996.7 -1 37
2019-03-31 18:00:00 18.8 10 Nordeste 26 Nordeste 0 997.1 -0.4 42
2019-03-31 17:00:00 21.1 13 Norte 38 Noroeste 0 997.4 -0.7 36
2019-03-31 16:00:00 18.6 6 Sur 26 Sudoeste 0 997.7 -0.9 41
2019-03-31 15:00:00 20.4 11 Sudoeste 18 Sudoeste 0 997.5 -1.5 43
2019-03-31 14:00:00 20.9 5 Sudoeste 11 Oeste 0 998.1 -0.8 40
2019-03-31 13:00:00 20.5 4 Noroeste 9 Norte 0 998.6 -0.2 40
2019-03-31 12:00:00 17.1 2 Oeste 6 Sudoeste 0 999 0.2 52
2019-03-31 11:00:00 13.9 4 Sudoeste 6 Sudeste 0 998.9 0.2 58
2019-03-31 10:00:00 11.2 2 Sur 11 Este 0 998.8 -0.2 63
2019-03-31 09:00:00 10.4 8 Nordeste 14 Nordeste 0 998.8 -0.5 58
2019-03-31 08:00:00 9.9 5 Norte 12 Este 0 998.7 -1.3 60
2019-03-31 07:00:00 9.6 4 Nordeste 12 Este 0 999 -1.8 60
2019-03-31 06:00:00 10.2 7 Este 20 Nordeste 0 999.3 -2.1 57
2019-03-31 05:00:00 10.3 13 Nordeste 19 Nordeste 0 1000 -2 57
2019-03-31 03:00:00 10.9 11 Este 15 Este 0 1001.4 -1.3 58
2019-03-31 01:00:00 11.4 7 Este 14 Nordeste 0 1002 -0.7 58
2019-03-31 00:00:00 11.2 6 Nordeste 14 Este 0 1002.4 0 59
2019-03-30 23:00:00 11.7 8 Este 13 Este 0 1002.7 0.6 60
2019-03-30 22:00:00 12.8 8 Nordeste 15 Nordeste 0 1002.7 0.6 62
2019-03-30 21:00:00 13.4 3 Sudeste 7 Sur 0 1002.4 0.5 71
2019-03-30 20:00:00 15.2 3 Sur 10 Sudoeste 0 1002.1 -0.1 60
2019-03-30 19:00:00 16.8 7 Sudoeste 18 Sudoeste 0 1002.1 -0.3 51
2019-03-30 18:00:00 18.6 10 Sudoeste 18 Sudoeste 0 1001.9 -0.7 45
2019-03-30 17:00:00 18.2 9 Sudoeste 24 Sudoeste 0 1002.2 -0.9 43
2019-03-30 16:00:00 19 12 Sudoeste 24 Sudoeste 0 1002.4 -1.3 40
2019-03-30 15:00:00 20.4 9 Sudoeste 23 Sudoeste 0 1002.6 -1.6 37
2019-03-30 14:00:00 20.4 10 Sudoeste 19 Sudoeste 0 1003.1 -1.5 30
2019-03-30 13:00:00 20 7 Sudoeste 14 Sudoeste 0 1003.7 -1 31
2019-03-30 12:00:00 18.3 6 Oeste 10 Oeste 0 1004.2 -0.6 35
2019-03-30 11:00:00 15.6 2 Noroeste 6 Este 0 1004.6 0 45
2019-03-30 10:00:00 12.7 4 Norte 19 Nordeste 0 1004.7 0.2 51
2019-03-30 09:00:00 9.5 14 Nordeste 21 Nordeste 0 1004.8 0.5 54
2019-03-30 08:00:00 7.5 14 Nordeste 21 Este 0 1004.6 0.1 60
2019-03-30 07:00:00 8 13 Nordeste 22 Nordeste 0 1004.5 -0.1 58
2019-03-30 06:00:00 7.8 13 Nordeste 22 Nordeste 0 1004.3 -0.5 58
2019-03-30 05:00:00 7.7 5 Este 14 Nordeste 0 1004.5 -0.7 60
2019-03-30 04:00:00 9.1 13 Nordeste 22 Nordeste 0 1004.6 -0.8 54
2019-03-30 03:00:00 9.6 14 Nordeste 23 Nordeste 0 1004.8 -0.9 53
2019-03-30 02:00:00 9.9 9 Este 22 Nordeste 0 1005.2 -0.7 53
2019-03-30 01:00:00 10.7 14 Nordeste 21 Nordeste 0 1005.4 -0.6 49
2019-03-30 00:00:00 10.7 6 Este 20 Nordeste 0 1005.7 0 50
2019-03-29 23:00:00 11.7 12 Nordeste 19 Nordeste 0 1005.9 0.4 47
2019-03-29 22:00:00 12.3 10 Nordeste 15 Este 0 1006 0.4 46
2019-03-29 21:00:00 13.4 4 Nordeste 5 Norte 0 1005.7 0.2 51
2019-03-29 20:00:00 15.1 4 Sur 15 Sudoeste 0 1005.5 -0.2 46
2019-03-29 19:00:00 17.5 9 Sudoeste 21 Sudoeste 0 1005.6 -0.1 34
2019-03-29 18:00:00 19.2 8 Sudoeste 27 Sudoeste 0 1005.5 -0.6 28
2019-03-29 17:00:00 19.6 13 Sudoeste 33 Sudoeste 0 1005.7 -0.7 29
2019-03-29 16:00:00 19.8 19 Sudoeste 37 Sudoeste 0 1005.7 -1.1 34
2019-03-29 15:00:00 20.4 14 Sudoeste 33 Sudoeste 0 1006.1 -0.9 32
2019-03-29 14:00:00 21.4 13 Sudoeste 28 Sudoeste 0 1006.4 -0.8 28
2019-03-29 13:00:00 21.6 13 Sudoeste 25 Sudoeste 0 1006.8 -0.6 27
2019-03-29 12:00:00 20.8 5 Sur 8 Sur 0 1007 -0.4 38
2019-03-29 11:00:00 17.7 3 Oeste 5 Sudoeste 0 1007.2 -0.2 51
2019-03-29 10:00:00 14.3 2 Oeste 7 Sudeste 0 1007.4 0.2 52
2019-03-29 09:00:00 12.7 4 Sudeste 19 Nordeste 0 1007.4 0.3 52
2019-03-29 08:00:00 10.7 9 Nordeste 17 Nordeste 0 1007.4 0.1 52
2019-03-29 07:00:00 10.9 13 Nordeste 19 Nordeste 0 1007.2 -0.5 53
2019-03-29 06:00:00 11.1 15 Nordeste 18 Nordeste 0 1007.1 -0.9 53
2019-03-29 05:00:00 11.1 10 Nordeste 13 Nordeste 0 1007.3 -0.9 55
2019-03-29 04:00:00 9.8 3 Sur 13 Nordeste 0 1007.7 -0.7 64
2019-03-29 03:00:00 10.3 9 Nordeste 18 Nordeste 0 1008 -0.7 64
2019-03-29 02:00:00 11 8 Nordeste 21 Nordeste 0 1008.2 -0.6 63
2019-03-29 01:00:00 10.9 6 Este 9 Nordeste 0 1008.4 -0.5 63
2019-03-29 00:00:00 11.6 3 Sudeste 16 Este 0 1008.7 0.2 62
2019-03-28 23:00:00 13.1 8 Nordeste 15 Nordeste 0 1008.8 0.8 55
2019-03-28 22:00:00 13.8 3 Nordeste 6 Sudeste 0 1008.9 1.1 57
2019-03-28 21:00:00 14.4 3 Este 10 Sudoeste 0 1008.5 1 56
2019-03-28 20:00:00 16.5 4 Sudoeste 15 Sudoeste 0 1008 0.2 47
2019-03-28 19:00:00 20.1 8 Sudoeste 21 Sudoeste 0 1007.8 -0.6 33
2019-03-28 18:00:00 22 13 Sudoeste 26 Sudoeste 0 1007.5 -1.7 29
2019-03-28 17:00:00 23.1 13 Sudoeste 25 Sudoeste 0 1007.8 -2.1 30
2019-03-28 16:00:00 24.1 11 Oeste 21 Sudoeste 0 1008.4 -2.3 30
2019-03-28 15:00:00 23.5 10 Sudoeste 20 Sudoeste 0 1009.2 -2.2 30
2019-03-28 14:00:00 23.2 12 Oeste 19 Sudoeste 0 1009.9 -2.1 30
2019-03-28 13:00:00 22 6 Oeste 12 Sudoeste 0 1010.7 -1.4 27
2019-03-28 12:00:00 19.9 5 Noroeste 10 Oeste 0 1011.4 -0.5 33
2019-03-28 11:00:00 17.2 4 Norte 7 Norte 0 1012 0.3 50
2019-03-28 10:00:00 13.3 3 Sudoeste 5 Sudeste 0 1012.1 0.9 53
2019-03-28 09:00:00 10.5 0 Calma 6 Sudeste 0 1011.9 0.9 61
2019-03-28 08:00:00 8.4 4 Sudeste 6 Sudeste 0 1011.7 1.2 67
2019-03-28 07:00:00 8.7 6 Sudeste 9 Norte 0 1011.2 0.8 65
2019-03-28 06:00:00 8.9 3 Sudeste 8 Sudeste 0 1011 0.6 65
2019-03-28 05:00:00 8.8 0 Calma 4 Sur 0 1010.5 0.2 64
2019-03-28 04:00:00 8.8 3 Sur 5 Nordeste 0 1010.4 0.1 65
2019-03-28 03:00:00 9.1 0 Calma 12 Este 0 1010.4 0.4 66
2019-03-28 02:00:00 10.1 4 Nordeste 10 Nordeste 0 1010.3 0.5 60
2019-03-28 01:00:00 11.1 3 Sudeste 9 Nordeste 0 1010.3 0.9 56
2019-03-28 00:00:00 13.1 7 Nordeste 12 Nordeste 0 1010 0.9 49
2019-03-27 23:00:00 13.5 0 Calma 12 Este 0 1009.8 1.3 49
2019-03-27 22:00:00 15.3 5 Nordeste 9 Nordeste 0 1009.4 1.2 42
2019-03-27 21:00:00 16.4 0 Calma 6 Sudeste 0 1009.1 1.5 31
2019-03-27 20:00:00 18.2 4 Sur 14 Sudoeste 0 1008.5 1 31
2019-03-27 19:00:00 21.1 9 Sudoeste 23 Sudoeste 0 1008.2 0.2 25
2019-03-27 18:00:00 23.3 13 Sudoeste 23 Sudoeste 0 1007.6 -0.8 20
2019-03-27 17:00:00 25 14 Oeste 26 Oeste 0 1007.5 -1.4 16
2019-03-27 16:00:00 25.1 8 Oeste 22 Oeste 0 1008 -1.3 12
2019-03-27 15:00:00 24.5 8 Norte 15 Noroeste 0 1008.4 -0.9 12
2019-03-27 14:00:00 23.9 4 Norte 18 Nordeste 0 1008.9 -0.2 10
2019-03-27 13:00:00 22.7 13 Este 21 Nordeste 0 1009.3 0.6 13
2019-03-27 12:00:00 21.6 8 Nordeste 19 Norte 0 1009.3 0.8 14
2019-03-27 11:00:00 20.2 9 Este 22 Nordeste 0 1009.1 0.8 12
2019-03-27 10:00:00 15.6 4 Nordeste 19 Nordeste 0 1008.7 1.1 26
2019-03-27 09:00:00 12.7 10 Nordeste 16 Este 0 1008.5 1.4 19
2019-03-27 08:00:00 11.1 9 Nordeste 18 Nordeste 0 1008.3 1.7 20
2019-03-27 07:00:00 11.4 8 Nordeste 14 Nordeste 0 1007.6 1.3 20
2019-03-27 06:00:00 12.4 10 Nordeste 21 Nordeste 0 1007.1 0.9 19
2019-03-27 05:00:00 12.3 12 Nordeste 24 Norte 0 1006.6 0.6 22
2019-03-27 04:00:00 11.3 6 Nordeste 15 Nordeste 0 1006.3 0.5 26
2019-03-27 03:00:00 12.9 8 Nordeste 18 Este 0 1006.2 0.5 23
2019-03-27 02:00:00 13.2 10 Nordeste 21 Nordeste 0 1006 0.8 30
2019-03-27 01:00:00 13.4 7 Nordeste 18 Nordeste 0 1005.8 1.2 31
2019-03-27 00:00:00 14.6 6 Este 21 Norte 0 1005.7 2 32